Share

Superior, NE (68978)

North Superior (KNESUPER1) Elev 1640 ft | 40.03 °N, 98.07 °W | Change Station

Current weather conditions updated 3 seconds ago

Haze
Haze
56.7 °F
Feels Like 56.7 °F
N
6.0
Wind Variable Wind from East
Gusts 8.0 mph
Sunrise 6:51 AM
Sunset 8:12 PM
Moon Waning Gibbous

Tomorrow is forecast to be Much Warmer than today.

Pressure 30.23 in
Visibility 5.0 miles
Clouds Clear
Dew Point 29 °F
Humidity 34%
Rainfall 0.00 in
Snow Depth Not available.
UV 4 out of 16
Pollen 9.00 out of 12
Air Quality Not available.
Flu Activity Sporadic
METAR KHJH 172155Z AUTO 00000KT 5SM HZ CLR 13/M03 A3023 RMK AO2 T01251028

More Conditions Fewer Conditions

Pressure 30.23 in
Visibility 5.0 miles
Clouds Clear
Dew Point 29 °F
Humidity 34%
Rainfall 0.00 in
Snow Depth Not available.
UV 4 out of 16
Pollen 9.00 out of 12
Air Quality Not available.
Flu Activity Sporadic
METAR KHJH 172155Z AUTO 00000KT 5SM HZ CLR 13/M03 A3023 RMK AO2 T01251028

More Conditions Fewer Conditions

10-Day Forecast

Almanac

Astronomy

Apr. 17, 2014 Rise Set
Actual Time 6:51 AM CDT 8:12 PM CDT
Civil Twilight 6:23 AM CDT 8:41 PM CDT
Nautical Twilight 5:49 AM CDT 9:15 PM CDT
Astronomical Twilight 5:13 AM CDT 9:50 PM CDT
Moon 11:00 PM CDT 8:24 AM CDT
Length of Visible Light 14h 17m
Length of Day
13h 21m
Tomorrow will be 2m 29s longer.
Waning Gibbous, 92% of the Moon is Illuminated
Today
Waning Gibbous
Apr 22
Last Quarter
Apr 29
New
May 6
First Quarter
May 14
Full

Today's Extremes

State Highs State Lows

Community

  • Morning Light
    Morning Light
  • New Day
    New Day
  • Lake Michigan Sunrise
    Lake Michigan Sunrise
  • sunset from izmir, narlıdere
    sunset from izmir, narlıdere
  • oregon cherry
    oregon cherry

WunderPhotos

Upload Photos

1,702,154 photos uploaded!

Nearby

Snow Depth

Station Depth Elevation
No new snow has been reported.

Coastal Water Temperatures

Place Temperature
No Stations Reporting

Earthquake Activity

City Distance Mag. Time & Date
No recent earthquake activity has been reported nearby.
Minimum magnitude displayed is 2.5.

Nearby Weather Stations

Station Location Temp. Dew Point Humidity Wind Precip. Elev Updated Type
North Superior, Superior, NE 56.7 °F 29 °F 34% East  at  6.0 mph 0.00 in / hr 1640 ft 5:13 PM CDT Rapid Fire
2 S of Pawnee, Courtland, KS 57.4 °F 28 °F 32% ESE  at  1.3 mph 0.00 in / hr 1552 ft 5:13 PM CDT Rapid Fire
HADS LITTLE BLUE RIVER NEAR DEWEESE 4 NE, Deweese, NE 53 °F - - North  at  - 0.00 in / hr 1660 ft 4:15 PM CDT MADIS
MesoWest SEDAN1 , Ong, NE 51 °F - - North  at  - 0.00 in / hr 1685 ft 4:00 PM CDT MADIS

Show More Stations Show Fewer Stations

What do you think?

We're not finished. Please let us know what you like, what you don't like, and what you are still missing.